aviador You're here:

RKSI Decoded Metar

CHAJANG NI in KOREA
Report Time2018-01-16 19:00:00
UTC Time2018-01-16 19:32:45
Flight Rules ifr IFR
Wind070° at 05 kt
W.Decomp.*RWY 15: 1.5 kt HW 4.8 kt LCW
RWY 16: 0.7 kt HW 5 kt LCW
W.Rank070° ranks 13
Current wind is above 070° avg. (4.6)
Visibility3500 m
Phenomena:Mist
Clouds:Few 030 Hf
Broken 120 Hf
Expected CloudBase > 1,600 ft AGL from Temp-Dew spread
Ceiling12,000 ft
Temp02°C (ISA -13)
Dew Point-2°C (75% RH)
AAT-2.1°C
QNH1016 hPa
Density Alt-1,585 ft
Elevation23 ft
Report Wrong Elevation
Raw Report
METAR RKSI 161900Z 07005KT 3500 BR FEW030 BKN120 02/M02 Q1016 NOSIG=

Extra information for RKSI:More info

Metar Taf Metar & Taf Last 4 Metars F.Rules Stats Wind Profile Meteogram Temp Stats Airport Information Weather charts Add Link Nearby VenuesMetar ALERT Operation Metar Decoded Social comments